Time;durP1;ratioP1;P1;durP2;ratioP2;P2;SDS_P1;SDS_P2;PMS_P1;PMS_P2;Temp;Humidity;BMP_temperature;BMP_pressure;BME280_temperature;BME280_humidity;BME280_pressure;Samples;Min_cycle;Max_cycle;Signal;HPM_P1;HPM_P2
2024/04/06 00:00:19;;;;;;;3.35;0.90;;;;;;;;;;5072886;28;20039;-68
2024/04/06 00:02:45;;;;;;;3.33;0.97;;;;;;;;;;5072931;28;20477;-66
2024/04/06 00:05:12;;;;;;;2.95;0.77;;;;;;;;;;5072537;28;20051;-66
2024/04/06 00:07:37;;;;;;;4.00;0.80;;;;;;;;;;5072678;28;20028;-63
2024/04/06 00:10:02;;;;;;;3.28;0.70;;;;;;;;;;5072751;28;20024;-64
2024/04/06 00:12:28;;;;;;;2.43;0.70;;;;;;;;;;5073439;28;20070;-65
2024/04/06 00:14:53;;;;;;;;;;;;;;;;;;5073294;28;20397;-66
2024/04/06 00:17:19;;;;;;;3.35;0.70;;;;;;;;;;5071670;28;20344;-65
2024/04/06 00:19:45;;;;;;;2.75;0.70;;;;;;;;;;5072930;28;20032;-65
2024/04/06 00:22:10;;;;;;;3.92;0.70;;;;;;;;;;5072075;28;20052;-66
2024/04/06 00:24:36;;;;;;;3.67;0.80;;;;;;;;;;5072553;28;20036;-63
2024/04/06 00:27:01;;;;;;;2.25;0.60;;;;;;;;;;4987246;28;20080;-64
2024/04/06 00:29:26;;;;;;;1.80;0.60;;;;;;;;;;4969776;28;20389;-66
2024/04/06 00:31:51;;;;;;;4.40;0.80;;;;;;;;;;5012506;28;20017;-66
2024/04/06 00:34:16;;;;;;;2.85;0.70;;;;;;;;;;5072110;28;20029;-65
2024/04/06 00:36:42;;;;;;;1.83;0.60;;;;;;;;;;5071780;28;20112;-64
2024/04/06 00:39:07;;;;;;;3.55;0.88;;;;;;;;;;5071685;28;20020;-65
2024/04/06 00:41:32;;;;;;;2.73;0.70;;;;;;;;;;5071804;28;20063;-64
2024/04/06 00:43:57;;;;;;;3.58;0.77;;;;;;;;;;5071788;28;20039;-65
2024/04/06 00:46:22;;;;;;;2.67;0.98;;;;;;;;;;5071577;28;20096;-65
2024/04/06 00:48:47;;;;;;;2.55;0.80;;;;;;;;;;5072608;28;20047;-63
2024/04/06 00:51:13;;;;;;;3.08;0.77;;;;;;;;;;5072802;28;20384;-65
2024/04/06 00:53:38;;;;;;;3.13;0.77;;;;;;;;;;5072881;28;20052;-65
2024/04/06 00:56:04;;;;;;;2.93;0.60;;;;;;;;;;5073360;28;20047;-65
2024/04/06 00:58:29;;;;;;;2.45;0.70;;;;;;;;;;5072127;28;20020;-66
2024/04/06 01:00:54;;;;;;;2.95;0.88;;;;;;;;;;5071384;28;20638;-64
2024/04/06 01:03:20;;;;;;;3.33;0.77;;;;;;;;;;5071714;28;20025;-65
2024/04/06 01:05:45;;;;;;;3.47;0.70;;;;;;;;;;5071387;28;20024;-64
2024/04/06 01:08:10;;;;;;;4.03;1.10;;;;;;;;;;5071362;28;20492;-65
2024/04/06 01:10:36;;;;;;;2.50;0.70;;;;;;;;;;5071483;28;20021;-65
2024/04/06 01:13:01;;;;;;;2.67;0.77;;;;;;;;;;5069946;28;20025;-65
2024/04/06 01:15:31;;;;;;;3.83;0.80;;;;;;;;;;5071339;28;20037;-66
2024/04/06 01:17:56;;;;;;;2.15;0.70;;;;;;;;;;5071321;28;20021;-64
2024/04/06 01:20:21;;;;;;;4.40;0.75;;;;;;;;;;5071629;28;20116;-66
2024/04/06 01:22:46;;;;;;;2.40;0.80;;;;;;;;;;5072468;28;20025;-64
2024/04/06 01:25:12;;;;;;;3.73;0.70;;;;;;;;;;5072774;28;20081;-64
2024/04/06 01:27:37;;;;;;;1.73;0.63;;;;;;;;;;5072484;28;20037;-66
2024/04/06 01:30:02;;;;;;;3.70;0.90;;;;;;;;;;5073750;28;20034;-65
2024/04/06 01:32:27;;;;;;;1.83;0.50;;;;;;;;;;4993040;28;20019;-66
2024/04/06 01:34:52;;;;;;;2.97;0.90;;;;;;;;;;4953890;28;20530;-64
2024/04/06 01:37:18;;;;;;;3.28;0.70;;;;;;;;;;4954700;28;20027;-65
2024/04/06 01:39:43;;;;;;;2.88;0.75;;;;;;;;;;4957094;28;20043;-66
2024/04/06 01:42:08;;;;;;;2.67;0.70;;;;;;;;;;4956101;28;20098;-64
2024/04/06 01:44:33;;;;;;;3.15;0.75;;;;;;;;;;4957273;28;20035;-65
2024/04/06 01:46:58;;;;;;;2.78;0.85;;;;;;;;;;4954511;28;20383;-64
2024/04/06 01:49:24;;;;;;;3.20;0.63;;;;;;;;;;4950455;28;20081;-64
2024/04/06 01:51:49;;;;;;;2.85;0.80;;;;;;;;;;4950221;28;20499;-65
2024/04/06 01:54:14;;;;;;;3.00;0.80;;;;;;;;;;4950469;28;20141;-65
2024/04/06 01:56:39;;;;;;;4.00;1.00;;;;;;;;;;4950059;28;20035;-65
2024/04/06 01:59:04;;;;;;;2.70;0.73;;;;;;;;;;4950110;28;20396;-64
2024/04/06 02:01:30;;;;;;;4.47;1.10;;;;;;;;;;4949853;28;20063;-66
2024/04/06 02:03:55;;;;;;;4.47;1.10;;;;;;;;;;4950598;28;20031;-64
2024/04/06 02:06:20;;;;;;;2.40;1.00;;;;;;;;;;4950234;28;20034;-65
2024/04/06 02:08:45;;;;;;;3.85;1.00;;;;;;;;;;4950327;28;20480;-66
2024/04/06 02:11:10;;;;;;;2.60;0.80;;;;;;;;;;4950104;28;20023;-65
2024/04/06 02:13:36;;;;;;;3.30;0.90;;;;;;;;;;4950424;28;20108;-63
2024/04/06 02:16:01;;;;;;;4.65;1.05;;;;;;;;;;4949943;28;20572;-63
2024/04/06 02:18:26;;;;;;;5.07;1.10;;;;;;;;;;4950404;28;20107;-65
2024/04/06 02:20:52;;;;;;;4.35;1.20;;;;;;;;;;4950129;28;20020;-66
2024/04/06 02:23:17;;;;;;;4.70;1.20;;;;;;;;;;4950165;28;20015;-65
2024/04/06 02:25:42;;;;;;;4.10;1.43;;;;;;;;;;4951498;28;20356;-66
2024/04/06 02:28:07;;;;;;;3.80;1.20;;;;;;;;;;4952261;28;20130;-64
2024/04/06 02:30:33;;;;;;;4.63;1.27;;;;;;;;;;4950858;28;20019;-66
2024/04/06 02:32:58;;;;;;;4.30;1.30;;;;;;;;;;5058049;28;20029;-64
2024/04/06 02:35:24;;;;;;;3.47;1.10;;;;;;;;;;5070635;28;20029;-63
2024/04/06 02:37:49;;;;;;;;;;;;;;;;;;5025126;28;20046;-64
2024/04/06 02:40:14;;;;;;;3.20;0.88;;;;;;;;;;4968787;28;19914;-65
2024/04/06 02:42:39;;;;;;;3.73;0.97;;;;;;;;;;4969053;28;20065;-63
2024/04/06 02:45:05;;;;;;;3.45;1.17;;;;;;;;;;4969919;28;20380;-67
2024/04/06 02:47:30;;;;;;;5.35;0.90;;;;;;;;;;4972235;28;20458;-64
2024/04/06 02:49:56;;;;;;;4.07;0.90;;;;;;;;;;4972245;28;20111;-66
2024/04/06 02:52:23;;;;;;;2.85;0.88;;;;;;;;;;4972782;28;20101;-63
2024/04/06 02:54:48;;;;;;;2.97;0.98;;;;;;;;;;4973646;28;20019;-64
2024/04/06 02:57:14;;;;;;;3.42;0.90;;;;;;;;;;4972919;28;20080;-65
2024/04/06 02:59:39;;;;;;;3.75;1.10;;;;;;;;;;4973525;28;20144;-64
2024/04/06 03:02:04;;;;;;;2.93;1.00;;;;;;;;;;4973950;28;20034;-63
2024/04/06 03:04:29;;;;;;;3.63;1.27;;;;;;;;;;4972275;28;20136;-64
2024/04/06 03:06:56;;;;;;;3.95;1.08;;;;;;;;;;4971925;28;20025;-63
2024/04/06 03:09:21;;;;;;;;;;;;;;;;;;4972522;28;20081;-66
2024/04/06 03:11:46;;;;;;;3.22;1.02;;;;;;;;;;4971951;28;19948;-64
2024/04/06 03:14:11;;;;;;;3.97;1.13;;;;;;;;;;4971760;28;20580;-64
2024/04/06 03:16:36;;;;;;;4.43;1.20;;;;;;;;;;4971987;28;20034;-63
2024/04/06 03:19:02;;;;;;;7.13;1.10;;;;;;;;;;4972029;28;20073;-65
2024/04/06 03:21:30;;;;;;;3.53;1.00;;;;;;;;;;4971974;28;20019;-65
2024/04/06 03:23:55;;;;;;;3.95;1.00;;;;;;;;;;4971936;28;20129;-65
2024/04/06 03:26:20;;;;;;;3.30;1.15;;;;;;;;;;4973424;28;20148;-64
2024/04/06 03:28:46;;;;;;;4.13;1.00;;;;;;;;;;4970942;28;20046;-67
2024/04/06 03:31:11;;;;;;;5.85;1.13;;;;;;;;;;4992558;28;20020;-65
2024/04/06 03:33:36;;;;;;;3.78;1.00;;;;;;;;;;5074258;28;20035;-65
2024/04/06 03:36:01;;;;;;;3.10;1.23;;;;;;;;;;5075155;28;20465;-64
2024/04/06 03:38:26;;;;;;;4.30;1.17;;;;;;;;;;5083978;28;20048;-66
2024/04/06 03:40:52;;;;;;;5.13;1.00;;;;;;;;;;5085219;28;20046;-65
2024/04/06 03:43:17;;;;;;;3.87;1.00;;;;;;;;;;5068609;28;20023;-64
2024/04/06 03:45:43;;;;;;;4.07;1.10;;;;;;;;;;4984528;28;20015;-64
2024/04/06 03:48:08;;;;;;;;;;;;;;;;;;4987021;28;20031;-69
2024/04/06 03:50:34;;;;;;;3.67;0.90;;;;;;;;;;4985586;28;19951;-65
2024/04/06 03:53:00;;;;;;;2.73;0.90;;;;;;;;;;4984031;28;20038;-63
2024/04/06 03:55:25;;;;;;;5.22;1.20;;;;;;;;;;4953523;28;20027;-64
2024/04/06 03:57:50;;;;;;;4.10;1.10;;;;;;;;;;4951503;28;20476;-64
2024/04/06 04:00:15;;;;;;;2.80;1.10;;;;;;;;;;4951713;28;20031;-64
2024/04/06 04:02:41;;;;;;;2.58;0.80;;;;;;;;;;4963565;28;20034;-63
2024/04/06 04:05:08;;;;;;;3.55;1.00;;;;;;;;;;4971129;28;20183;-67
2024/04/06 04:07:35;;;;;;;3.42;1.00;;;;;;;;;;4971123;28;20027;-63
2024/04/06 04:10:01;;;;;;;3.40;1.02;;;;;;;;;;4971174;28;20043;-64
2024/04/06 04:12:27;;;;;;;2.75;0.90;;;;;;;;;;4971080;28;20050;-66
2024/04/06 04:14:52;;;;;;;3.42;1.13;;;;;;;;;;4969119;28;20050;-65
2024/04/06 04:17:18;;;;;;;5.67;1.20;;;;;;;;;;4971229;28;20015;-64
2024/04/06 04:19:43;;;;;;;4.95;1.50;;;;;;;;;;4970914;28;20022;-65
2024/04/06 04:22:08;;;;;;;4.57;1.10;;;;;;;;;;4973059;28;20043;-63
2024/04/06 04:24:33;;;;;;;6.32;1.10;;;;;;;;;;4971148;28;20065;-64
2024/04/06 04:26:58;;;;;;;3.03;1.10;;;;;;;;;;4971146;28;20058;-68
2024/04/06 04:29:24;;;;;;;4.17;1.20;;;;;;;;;;4970941;28;20038;-66
2024/04/06 04:31:49;;;;;;;3.55;1.08;;;;;;;;;;5050336;28;20016;-66
2024/04/06 04:34:14;;;;;;;3.63;0.90;;;;;;;;;;5072110;28;20044;-65
2024/04/06 04:36:39;;;;;;;2.75;0.90;;;;;;;;;;5071822;28;20039;-65
2024/04/06 04:39:05;;;;;;;3.10;1.00;;;;;;;;;;5054300;28;20047;-65
2024/04/06 04:41:30;;;;;;;5.50;1.02;;;;;;;;;;5071867;28;20115;-65
2024/04/06 04:43:56;;;;;;;4.47;1.10;;;;;;;;;;5072078;28;20024;-65
2024/04/06 04:46:21;;;;;;;2.38;0.80;;;;;;;;;;5071752;28;20020;-65
2024/04/06 04:48:56;;;;;;;4.05;0.90;;;;;;;;;;5071571;28;20029;-64
2024/04/06 04:51:22;;;;;;;2.28;0.77;;;;;;;;;;5071454;28;20025;-65
2024/04/06 04:53:47;;;;;;;2.92;0.85;;;;;;;;;;5071770;28;20039;-66
2024/04/06 04:56:13;;;;;;;3.83;0.98;;;;;;;;;;5071348;28;20013;-64
2024/04/06 04:58:38;;;;;;;4.23;0.90;;;;;;;;;;5072039;28;20024;-65
2024/04/06 05:01:03;;;;;;;3.03;1.00;;;;;;;;;;5071659;28;20029;-65
2024/04/06 05:03:28;;;;;;;3.17;0.97;;;;;;;;;;5071385;28;20078;-66
2024/04/06 05:05:54;;;;;;;4.03;1.10;;;;;;;;;;5070492;28;20115;-64
2024/04/06 05:08:19;;;;;;;2.80;0.90;;;;;;;;;;5009010;28;20031;-65
2024/04/06 05:10:44;;;;;;;2.47;0.80;;;;;;;;;;4951655;28;20023;-64
2024/04/06 05:13:10;;;;;;;3.60;0.88;;;;;;;;;;4949025;28;20443;-66
2024/04/06 05:15:36;;;;;;;3.65;1.10;;;;;;;;;;4950605;28;20031;-65
2024/04/06 05:18:02;;;;;;;2.90;1.00;;;;;;;;;;4950752;28;20425;-66
2024/04/06 05:20:27;;;;;;;2.58;0.90;;;;;;;;;;4950717;28;20050;-65
2024/04/06 05:22:53;;;;;;;2.97;1.05;;;;;;;;;;4950547;28;20510;-66
2024/04/06 05:25:18;;;;;;;2.73;0.90;;;;;;;;;;4950473;28;20023;-65
2024/04/06 05:27:43;;;;;;;4.87;1.00;;;;;;;;;;4950349;28;20063;-65
2024/04/06 05:30:08;;;;;;;3.75;0.90;;;;;;;;;;5007295;28;20063;-66
2024/04/06 05:32:34;;;;;;;2.55;0.82;;;;;;;;;;5071060;28;20029;-66
2024/04/06 05:34:59;;;;;;;2.88;0.82;;;;;;;;;;5070946;28;20024;-64
2024/04/06 05:37:24;;;;;;;3.30;1.00;;;;;;;;;;5071810;28;20353;-65
2024/04/06 05:39:49;;;;;;;5.07;0.98;;;;;;;;;;5071343;28;20071;-64
2024/04/06 05:42:14;;;;;;;2.90;0.90;;;;;;;;;;5071018;28;20031;-65
2024/04/06 05:44:39;;;;;;;2.90;0.90;;;;;;;;;;5071316;28;20373;-66
2024/04/06 05:47:04;;;;;;;2.50;0.70;;;;;;;;;;5070642;28;20020;-65
2024/04/06 05:49:30;;;;;;;2.83;0.67;;;;;;;;;;5071210;28;20155;-63
2024/04/06 05:51:55;;;;;;;2.92;0.88;;;;;;;;;;5072400;28;20028;-65
2024/04/06 05:54:23;;;;;;;3.13;1.13;;;;;;;;;;5076700;28;20139;-65
2024/04/06 05:56:48;;;;;;;3.13;0.88;;;;;;;;;;5077892;28;20407;-65
2024/04/06 05:59:13;;;;;;;4.67;1.00;;;;;;;;;;5080142;28;20579;-65
2024/04/06 06:01:39;;;;;;;3.65;1.02;;;;;;;;;;5078282;28;20480;-64
2024/04/06 06:04:06;;;;;;;3.70;1.00;;;;;;;;;;4974289;28;20039;-66
2024/04/06 06:06:31;;;;;;;;;;;;;;;;;;4968122;28;20023;-67
2024/04/06 06:08:56;;;;;;;4.17;1.10;;;;;;;;;;4969178;29;19921;-65
2024/04/06 06:11:21;;;;;;;4.70;1.05;;;;;;;;;;4969662;28;20457;-67
2024/04/06 06:13:46;;;;;;;3.07;0.93;;;;;;;;;;4970225;28;20027;-66
2024/04/06 06:16:11;;;;;;;3.23;0.90;;;;;;;;;;4969173;28;20050;-66
2024/04/06 06:18:37;;;;;;;4.93;1.25;;;;;;;;;;4963208;28;20487;-66
2024/04/06 06:21:05;;;;;;;3.92;1.00;;;;;;;;;;4955199;28;20479;-64
2024/04/06 06:23:30;;;;;;;4.32;1.10;;;;;;;;;;4954633;28;20610;-65
2024/04/06 06:25:56;;;;;;;3.87;1.00;;;;;;;;;;4968237;28;20030;-64
2024/04/06 06:28:21;;;;;;;3.60;0.80;;;;;;;;;;4982915;28;20419;-66
2024/04/06 06:30:46;;;;;;;2.33;0.70;;;;;;;;;;5074895;28;20487;-64
2024/04/06 06:33:12;;;;;;;5.03;1.00;;;;;;;;;;5074387;28;20464;-65
2024/04/06 06:35:38;;;;;;;3.63;0.95;;;;;;;;;;5074389;28;20021;-65
2024/04/06 06:38:04;;;;;;;6.00;1.17;;;;;;;;;;5074812;28;20379;-64
2024/04/06 06:40:29;;;;;;;3.35;0.80;;;;;;;;;;5074961;28;20048;-66
2024/04/06 06:42:54;;;;;;;3.22;1.05;;;;;;;;;;5074489;28;20147;-65
2024/04/06 06:45:19;;;;;;;6.25;0.82;;;;;;;;;;5073859;28;20016;-64
2024/04/06 06:47:44;;;;;;;2.53;0.60;;;;;;;;;;5074797;28;20552;-63
2024/04/06 06:50:10;;;;;;;3.97;0.95;;;;;;;;;;5074591;28;20032;-67
2024/04/06 06:52:36;;;;;;;2.60;0.73;;;;;;;;;;5072900;28;20012;-65
2024/04/06 06:55:02;;;;;;;3.05;0.90;;;;;;;;;;5073718;28;20095;-64
2024/04/06 06:57:28;;;;;;;;;;;;;;;;;;5074791;28;20050;-65
2024/04/06 06:59:53;;;;;;;2.95;0.80;;;;;;;;;;5073849;28;19905;-66
2024/04/06 07:02:18;;;;;;;2.35;0.80;;;;;;;;;;5074693;28;20024;-66
2024/04/06 07:04:44;;;;;;;3.70;0.90;;;;;;;;;;5001333;28;20034;-63
2024/04/06 07:07:09;;;;;;;4.35;0.95;;;;;;;;;;4975575;28;20031;-66
2024/04/06 07:09:35;;;;;;;2.88;0.90;;;;;;;;;;4975865;28;20038;-64
2024/04/06 07:12:00;;;;;;;2.80;0.90;;;;;;;;;;4974903;28;20517;-66
2024/04/06 07:14:25;;;;;;;2.57;0.80;;;;;;;;;;4974714;28;20035;-67
2024/04/06 07:16:50;;;;;;;3.97;1.00;;;;;;;;;;4973083;28;20035;-65
2024/04/06 07:19:16;;;;;;;3.00;0.82;;;;;;;;;;4973031;28;20019;-65
2024/04/06 07:21:41;;;;;;;4.05;1.00;;;;;;;;;;4973636;28;20430;-65
2024/04/06 07:24:07;;;;;;;3.83;1.00;;;;;;;;;;4978489;28;20026;-65
2024/04/06 07:26:32;;;;;;;3.27;0.90;;;;;;;;;;4976498;28;20027;-65
2024/04/06 07:28:57;;;;;;;4.38;0.90;;;;;;;;;;5061388;28;20067;-67
2024/04/06 07:31:23;;;;;;;3.50;1.00;;;;;;;;;;5072681;28;20028;-66
2024/04/06 07:33:49;;;;;;;3.55;1.05;;;;;;;;;;5073699;28;20105;-66
2024/04/06 07:36:14;;;;;;;3.83;1.10;;;;;;;;;;5073403;28;20067;-67
2024/04/06 07:38:39;;;;;;;3.05;1.02;;;;;;;;;;5073633;28;20116;-65
2024/04/06 07:41:05;;;;;;;3.20;0.90;;;;;;;;;;5073728;28;20024;-66
2024/04/06 07:43:30;;;;;;;3.03;0.90;;;;;;;;;;5072806;28;20072;-66
2024/04/06 07:45:55;;;;;;;3.00;0.88;;;;;;;;;;5073230;28;20027;-66
2024/04/06 07:48:21;;;;;;;3.23;1.10;;;;;;;;;;5074740;28;20114;-66
2024/04/06 07:50:46;;;;;;;3.95;1.25;;;;;;;;;;5074468;28;20969;-65
2024/04/06 07:53:13;;;;;;;2.97;0.73;;;;;;;;;;5074119;28;20426;-65
2024/04/06 07:55:38;;;;;;;3.55;0.90;;;;;;;;;;5074538;28;20028;-64
2024/04/06 07:58:04;;;;;;;3.78;0.95;;;;;;;;;;5074626;28;20075;-65
2024/04/06 08:00:30;;;;;;;2.67;0.85;;;;;;;;;;5050723;28;20010;-66
2024/04/06 08:02:56;;;;;;;3.20;0.90;;;;;;;;;;4953326;28;20077;-65
2024/04/06 08:05:21;;;;;;;2.70;0.87;;;;;;;;;;4961665;28;20027;-66
2024/04/06 08:07:46;;;;;;;3.13;1.00;;;;;;;;;;4971013;28;20034;-66
2024/04/06 08:10:15;;;;;;;4.07;1.00;;;;;;;;;;4972307;28;20444;-64
2024/04/06 08:12:44;;;;;;;2.58;0.85;;;;;;;;;;4972335;28;20376;-64
2024/04/06 08:15:10;;;;;;;4.43;0.90;;;;;;;;;;4971187;28;20030;-67
2024/04/06 08:17:39;;;;;;;2.83;1.00;;;;;;;;;;4971110;28;20023;-64
2024/04/06 08:20:05;;;;;;;3.30;1.10;;;;;;;;;;4971723;28;20026;-65
2024/04/06 08:22:30;;;;;;;3.35;0.90;;;;;;;;;;4971136;28;20018;-67
2024/04/06 08:24:55;;;;;;;2.97;1.00;;;;;;;;;;4971261;28;20019;-64
2024/04/06 08:27:21;;;;;;;3.30;0.98;;;;;;;;;;5026125;28;20024;-64
2024/04/06 08:29:46;;;;;;;2.65;1.00;;;;;;;;;;5072643;28;20024;-65
2024/04/06 08:32:11;;;;;;;3.80;1.10;;;;;;;;;;5072595;28;20013;-66
2024/04/06 08:34:37;;;;;;;4.15;0.90;;;;;;;;;;5072761;28;20029;-65
2024/04/06 08:37:02;;;;;;;4.07;1.00;;;;;;;;;;5072575;28;20369;-64
2024/04/06 08:39:28;;;;;;;2.43;0.80;;;;;;;;;;5072028;28;20032;-64
2024/04/06 08:41:56;;;;;;;3.60;1.00;;;;;;;;;;5072221;28;20082;-64
2024/04/06 08:44:24;;;;;;;2.40;0.80;;;;;;;;;;5071536;28;20060;-65
2024/04/06 08:46:49;;;;;;;3.08;0.85;;;;;;;;;;5071523;28;20115;-66
2024/04/06 08:49:14;;;;;;;2.88;0.77;;;;;;;;;;5076469;28;20059;-64
2024/04/06 08:51:40;;;;;;;3.37;0.77;;;;;;;;;;5074076;28;20027;-66
2024/04/06 08:54:05;;;;;;;2.75;0.77;;;;;;;;;;5072930;28;20050;-66
2024/04/06 08:56:32;;;;;;;2.93;0.97;;;;;;;;;;5076970;28;20028;-65
2024/04/06 08:58:57;;;;;;;;;;;;;;;;;;5077855;28;20082;-65
2024/04/06 09:01:22;;;;;;;3.22;0.80;;;;;;;;;;5073637;28;19904;-66
2024/04/06 09:03:47;;;;;;;3.50;0.90;;;;;;;;;;5073103;28;20052;-67
2024/04/06 09:06:18;;;;;;;3.13;0.70;;;;;;;;;;5020847;28;20077;-67
2024/04/06 09:08:44;;;;;;;2.78;0.70;;;;;;;;;;4976821;28;20058;-65
2024/04/06 09:11:12;;;;;;;2.90;0.60;;;;;;;;;;4976394;28;20033;-67
2024/04/06 09:13:37;;;;;;;3.22;0.88;;;;;;;;;;4970847;28;20035;-65
2024/04/06 09:16:02;;;;;;;3.50;0.80;;;;;;;;;;4970236;28;20105;-65
2024/04/06 09:18:28;;;;;;;2.33;0.60;;;;;;;;;;4970126;28;20022;-67
2024/04/06 09:20:53;;;;;;;2.40;0.70;;;;;;;;;;4968639;28;20438;-64
2024/04/06 09:23:18;;;;;;;3.78;0.90;;;;;;;;;;4969988;28;20054;-68
2024/04/06 09:25:44;;;;;;;2.30;0.80;;;;;;;;;;4996936;28;20024;-65
2024/04/06 09:28:14;;;;;;;2.80;0.70;;;;;;;;;;5070105;28;20032;-68
2024/04/06 09:30:43;;;;;;;3.28;0.75;;;;;;;;;;5072735;28;20024;-64
2024/04/06 09:33:10;;;;;;;2.92;0.75;;;;;;;;;;5070970;28;20538;-69
2024/04/06 09:35:38;;;;;;;3.95;0.80;;;;;;;;;;5071006;28;20028;-65
2024/04/06 09:38:04;;;;;;;4.80;0.80;;;;;;;;;;5071476;28;20030;-65
2024/04/06 09:40:29;;;;;;;2.40;0.68;;;;;;;;;;5071442;28;20025;-66
2024/04/06 09:42:54;;;;;;;2.83;0.90;;;;;;;;;;5070949;28;20016;-67
2024/04/06 09:45:21;;;;;;;1.50;0.50;;;;;;;;;;5070596;28;20028;-67
2024/04/06 09:47:46;;;;;;;;;;;;;;;;;;5071932;28;20472;-64
2024/04/06 09:50:11;;;;;;;1.75;0.60;;;;;;;;;;5071869;28;20387;-66
2024/04/06 09:52:37;;;;;;;2.78;0.70;;;;;;;;;;5072158;28;20032;-67
2024/04/06 09:55:03;;;;;;;3.07;0.80;;;;;;;;;;5071525;28;20025;-64
2024/04/06 09:57:28;;;;;;;1.88;0.70;;;;;;;;;;5073776;28;20024;-64
2024/04/06 10:00:00;;;;;;;2.33;0.75;;;;;;;;;;5072832;28;20124;-63
2024/04/06 10:02:25;;;;;;;;;;;;;;;;;;4950874;28;20027;-66
2024/04/06 10:04:55;;;;;;;1.77;0.60;;;;;;;;;;4949888;28;19911;-66
2024/04/06 10:07:26;;;;;;;3.53;0.80;;;;;;;;;;4959802;28;20542;-65
2024/04/06 10:09:57;;;;;;;3.33;1.00;;;;;;;;;;4969795;28;20121;-67
2024/04/06 10:12:35;;;;;;;3.67;0.80;;;;;;;;;;4969722;28;20019;-65
2024/04/06 10:15:00;;;;;;;;;;;;;;;;;;4970646;28;20031;-64
2024/04/06 10:17:26;;;;;;;3.08;0.90;;;;;;;;;;4970272;28;19937;-66
2024/04/06 10:19:52;;;;;;;2.47;0.80;;;;;;;;;;4976863;28;20078;-66
2024/04/06 10:22:24;;;;;;;4.28;1.08;;;;;;;;;;4975154;28;20100;-66
2024/04/06 10:24:54;;;;;;;4.22;0.90;;;;;;;;;;5012238;28;20080;-67
2024/04/06 10:27:24;;;;;;;4.57;0.93;;;;;;;;;;5086438;28;20032;-67
2024/04/06 10:29:50;;;;;;;3.85;1.05;;;;;;;;;;5089204;28;20067;-67
2024/04/06 10:32:15;;;;;;;4.55;0.80;;;;;;;;;;5083648;28;20029;-66
2024/04/06 10:34:41;;;;;;;2.63;0.80;;;;;;;;;;5084666;28;20543;-66
2024/04/06 10:37:06;;;;;;;2.85;0.98;;;;;;;;;;5087920;28;20021;-65
2024/04/06 10:39:32;;;;;;;3.00;0.90;;;;;;;;;;5080755;28;20063;-66
2024/04/06 10:41:57;;;;;;;;;;;;;;;;;;5072752;28;20025;-64
2024/04/06 10:44:22;;;;;;;4.20;1.10;;;;;;;;;;5071436;28;20383;-66
2024/04/06 10:46:47;;;;;;;2.97;0.77;;;;;;;;;;5070435;28;20024;-65
2024/04/06 10:49:13;;;;;;;3.57;0.93;;;;;;;;;;5070701;28;20033;-66
2024/04/06 10:51:38;;;;;;;2.87;0.90;;;;;;;;;;5070603;28;20021;-66
2024/04/06 10:54:03;;;;;;;4.00;1.00;;;;;;;;;;5070640;28;20427;-67
2024/04/06 10:56:29;;;;;;;3.08;0.88;;;;;;;;;;5070262;28;20798;-68
2024/04/06 10:58:54;;;;;;;3.38;0.77;;;;;;;;;;5070576;28;20023;-67
2024/04/06 11:01:20;;;;;;;2.37;0.80;;;;;;;;;;5070382;28;20048;-65
2024/04/06 11:03:49;;;;;;;3.17;1.08;;;;;;;;;;5070416;28;20048;-66
2024/04/06 11:06:14;;;;;;;3.85;1.13;;;;;;;;;;5071214;28;20150;-66
2024/04/06 11:08:40;;;;;;;3.72;1.10;;;;;;;;;;4990531;28;20053;-66
2024/04/06 11:11:06;;;;;;;4.63;1.10;;;;;;;;;;4952915;28;20024;-64
2024/04/06 11:13:36;;;;;;;4.25;1.00;;;;;;;;;;4952959;28;20055;-67
2024/04/06 11:16:02;;;;;;;2.10;0.70;;;;;;;;;;4957750;28;20034;-67
2024/04/06 11:18:37;;;;;;;3.95;1.00;;;;;;;;;;4958834;28;20066;-66
2024/04/06 11:21:06;;;;;;;3.55;0.90;;;;;;;;;;4959717;28;20051;-67
2024/04/06 11:23:31;;;;;;;3.42;1.00;;;;;;;;;;4958805;28;20050;-64
2024/04/06 11:26:00;;;;;;;3.85;0.98;;;;;;;;;;4962335;28;20016;-65
2024/04/06 11:28:25;;;;;;;5.80;0.98;;;;;;;;;;4969315;28;20047;-66
2024/04/06 11:30:51;;;;;;;4.55;0.88;;;;;;;;;;4967807;28;20038;-69
2024/04/06 11:33:16;;;;;;;2.80;0.70;;;;;;;;;;4968441;28;20114;-66
2024/04/06 11:35:41;;;;;;;3.80;0.95;;;;;;;;;;4957501;28;20069;-65
2024/04/06 11:38:07;;;;;;;4.25;0.93;;;;;;;;;;4952899;28;20395;-67
2024/04/06 11:40:32;;;;;;;4.57;1.20;;;;;;;;;;4952687;28;20035;-65
2024/04/06 11:42:57;;;;;;;3.10;0.80;;;;;;;;;;4952631;28;20387;-66
2024/04/06 11:45:22;;;;;;;3.10;1.10;;;;;;;;;;4952091;28;20073;-67
2024/04/06 11:47:48;;;;;;;2.77;0.90;;;;;;;;;;4952323;28;20579;-66
2024/04/06 11:50:13;;;;;;;;;;;;;;;;;;4953009;28;20027;-66
2024/04/06 11:52:38;;;;;;;2.57;0.80;;;;;;;;;;4952537;29;19913;-64
2024/04/06 11:55:03;;;;;;;;;;;;;;;;;;4952624;28;20027;-65
2024/04/06 11:57:28;;;;;;;3.20;0.90;;;;;;;;;;4952209;29;20795;-65
2024/04/06 11:59:53;;;;;;;3.38;1.00;;;;;;;;;;4952434;28;20068;-67
2024/04/06 12:02:18;;;;;;;2.53;0.90;;;;;;;;;;4952385;28;20023;-67
2024/04/06 12:04:44;;;;;;;3.17;1.00;;;;;;;;;;4951930;28;20529;-66
2024/04/06 12:07:09;;;;;;;2.92;0.90;;;;;;;;;;4951592;28;20157;-68
2024/04/06 12:09:34;;;;;;;;;;;;;;;;;;4962826;28;20031;-67
2024/04/06 12:11:59;;;;;;;3.28;0.80;;;;;;;;;;4971243;28;19960;-67
2024/04/06 12:14:24;;;;;;;;;;;;;;;;;;4971145;28;20453;-65
2024/04/06 12:16:50;;;;;;;3.25;0.90;;;;;;;;;;4970103;28;19917;-67
2024/04/06 12:19:15;;;;;;;3.13;1.10;;;;;;;;;;4970214;28;20089;-66
2024/04/06 12:21:40;;;;;;;2.77;0.97;;;;;;;;;;4970896;28;20030;-66
2024/04/06 12:24:05;;;;;;;4.10;1.15;;;;;;;;;;5059229;28;20051;-68
2024/04/06 12:26:30;;;;;;;;;;;;;;;;;;5072499;28;20054;-64
2024/04/06 12:28:56;;;;;;;2.80;0.80;;;;;;;;;;5072251;28;19912;-65
2024/04/06 12:31:21;;;;;;;3.60;1.00;;;;;;;;;;5072085;28;20028;-67
2024/04/06 12:33:46;;;;;;;3.20;1.08;;;;;;;;;;5072084;28;20435;-64
2024/04/06 12:36:12;;;;;;;;;;;;;;;;;;5072204;28;20055;-65
2024/04/06 12:38:37;;;;;;;3.38;0.90;;;;;;;;;;5072150;28;20410;-66
2024/04/06 12:41:02;;;;;;;;;;;;;;;;;;5072871;28;20040;-66
2024/04/06 12:43:27;;;;;;;3.55;1.00;;;;;;;;;;5072099;28;19904;-66
2024/04/06 12:45:52;;;;;;;;;;;;;;;;;;5072634;28;20017;-66
2024/04/06 12:48:18;;;;;;;2.47;0.98;;;;;;;;;;5070806;28;19928;-65
2024/04/06 12:50:44;;;;;;;;;;;;;;;;;;5074764;28;20045;-66
2024/04/06 12:53:09;;;;;;;4.03;0.90;;;;;;;;;;5087127;28;19905;-69
2024/04/06 12:55:34;;;;;;;5.38;1.20;;;;;;;;;;5088737;28;20032;-67
2024/04/06 12:57:59;;;;;;;4.13;1.10;;;;;;;;;;5079620;28;20054;-65
2024/04/06 13:00:24;;;;;;;4.03;1.00;;;;;;;;;;5072417;28;20024;-65
2024/04/06 13:02:50;;;;;;;;;;;;;;;;;;5072130;28;20035;-67
2024/04/06 13:05:15;;;;;;;3.77;1.00;;;;;;;;;;5071978;28;20376;-66
2024/04/06 13:07:40;;;;;;;3.63;0.90;;;;;;;;;;5071856;28;20020;-67
2024/04/06 13:10:06;;;;;;;4.38;1.00;;;;;;;;;;5018126;28;20054;-67
2024/04/06 13:12:31;;;;;;;;;;;;;;;;;;4951162;28;20039;-66
2024/04/06 13:15:00;;;;;;;4.18;1.00;;;;;;;;;;4950735;28;19973;-64
2024/04/06 13:17:25;;;;;;;2.38;1.00;;;;;;;;;;4950624;28;20028;-66
2024/04/06 13:19:52;;;;;;;5.07;0.90;;;;;;;;;;4950503;28;20023;-65
2024/04/06 13:22:17;;;;;;;;;;;;;;;;;;5023048;28;20024;-67
2024/04/06 13:24:42;;;;;;;5.32;1.10;;;;;;;;;;5071348;28;19908;-66
2024/04/06 13:27:08;;;;;;;4.25;1.05;;;;;;;;;;5071085;28;20470;-65
2024/04/06 13:29:33;;;;;;;;;;;;;;;;;;5071852;28;20024;-65
2024/04/06 13:31:59;;;;;;;3.40;1.17;;;;;;;;;;5070828;28;19905;-66
2024/04/06 13:34:24;;;;;;;3.22;0.90;;;;;;;;;;5071652;28;21016;-64
2024/04/06 13:36:49;;;;;;;;;;;;;;;;;;5071608;28;20016;-65
2024/04/06 13:39:15;;;;;;;2.10;0.80;;;;;;;;;;5071085;28;19905;-65
2024/04/06 13:41:40;;;;;;;;;;;;;;;;;;5071641;28;20657;-64
2024/04/06 13:44:05;;;;;;;3.67;1.00;;;;;;;;;;5071451;28;20373;-65
2024/04/06 13:46:30;;;;;;;;;;;;;;;;;;5071247;28;20111;-67
2024/04/06 13:48:56;;;;;;;3.53;1.00;;;;;;;;;;5071586;28;19919;-66
2024/04/06 13:51:21;;;;;;;;;;;;;;;;;;5073176;28;20089;-65
2024/04/06 13:53:47;;;;;;;2.95;0.88;;;;;;;;;;5073563;28;19912;-67
2024/04/06 13:56:12;;;;;;;;;;;;;;;;;;5073423;28;20027;-65
2024/04/06 13:58:37;;;;;;;2.85;0.95;;;;;;;;;;5072476;28;19908;-67
2024/04/06 14:01:03;;;;;;;;;;;;;;;;;;5073002;28;20012;-67
2024/04/06 14:03:28;;;;;;;3.78;1.00;;;;;;;;;;5071228;28;19960;-65
2024/04/06 14:05:53;;;;;;;2.97;1.00;;;;;;;;;;5070491;28;20048;-67
2024/04/06 14:08:18;;;;;;;;;;;;;;;;;;5071339;28;20071;-67
2024/04/06 14:10:43;;;;;;;3.55;0.80;;;;;;;;;;5039205;28;19906;-66
2024/04/06 14:13:09;;;;;;;;;;;;;;;;;;4969035;28;20367;-66
2024/04/06 14:15:34;;;;;;;4.05;1.00;;;;;;;;;;4968209;28;19952;-66
2024/04/06 14:17:59;;;;;;;;;;;;;;;;;;4966694;28;20439;-66
2024/04/06 14:20:26;;;;;;;3.17;0.93;;;;;;;;;;4999324;28;19910;-65
2024/04/06 14:22:51;;;;;;;2.88;1.00;;;;;;;;;;4983812;28;20060;-67
2024/04/06 14:25:17;;;;;;;;;;;;;;;;;;4988757;28;20014;-67
2024/04/06 14:27:42;;;;;;;4.00;0.90;;;;;;;;;;4985117;28;19945;-67
2024/04/06 14:30:28;;;;;;;;;;;;;;;;;;4980564;28;20747;-67
2024/04/06 14:32:53;;;;;;;2.45;0.80;;;;;;;;;;4982550;28;19910;-66
2024/04/06 14:35:18;;;;;;;;;;;;;;;;;;4979832;28;20014;-65
2024/04/06 14:37:43;;;;;;;4.03;1.25;;;;;;;;;;4988149;28;20046;-66
2024/04/06 14:40:08;;;;;;;;;;;;;;;;;;4984932;28;20023;-65
2024/04/06 14:42:33;;;;;;;3.58;1.30;;;;;;;;;;4969590;28;19917;-64